createdAt,value
2022-09-13T00:02:04.537Z,32.43
2022-09-13T00:12:15.028Z,30.00
2022-09-13T00:17:20.246Z,31.73
2022-09-13T00:22:25.202Z,31.30
2022-09-13T00:27:30.679Z,32.42
2022-09-13T00:37:41.390Z,33.38
2022-09-13T00:42:46.682Z,34.53
2022-09-13T00:47:59.261Z,36.28
2022-09-13T00:53:26.893Z,35.30
2022-09-13T00:58:40.503Z,36.28
2022-09-13T01:03:47.948Z,39.92
2022-09-13T01:08:55.611Z,35.50
2022-09-13T01:14:01.422Z,29.52
2022-09-13T01:19:06.978Z,32.38
2022-09-13T01:29:56.710Z,32.88
2022-09-13T01:35:19.792Z,27.33
2022-09-13T01:40:34.053Z,38.78
2022-09-13T01:45:51.266Z,26.30
2022-09-13T01:51:06.213Z,30.70
2022-09-13T01:56:26.162Z,41.47
2022-09-13T02:01:38.050Z,26.33
2022-09-13T02:07:07.075Z,33.42
2022-09-13T02:12:27.257Z,34.78
2022-09-13T02:17:39.696Z,29.98
2022-09-13T02:22:50.253Z,24.20
2022-09-13T02:28:00.440Z,31.38
2022-09-13T02:33:15.751Z,31.23
2022-09-13T02:38:33.881Z,24.23
2022-09-13T02:43:46.267Z,29.67
2022-09-13T02:49:01.381Z,33.67
2022-09-13T02:54:22.064Z,22.10
2022-09-13T02:59:28.365Z,29.02
2022-09-13T03:04:36.191Z,30.25
2022-09-13T03:09:57.684Z,27.90
2022-09-13T03:15:16.204Z,28.35
2022-09-13T03:20:33.614Z,28.92
2022-09-13T03:26:26.758Z,27.20
2022-09-13T03:32:03.885Z,28.35
2022-09-13T03:37:37.232Z,28.65
2022-09-13T03:42:49.622Z,22.08
2022-09-13T03:47:56.424Z,29.00
2022-09-13T03:53:08.138Z,23.42
2022-09-13T03:58:21.697Z,31.27
2022-09-13T04:03:27.184Z,27.77
2022-09-13T04:13:41.481Z,26.57
2022-09-13T04:18:46.935Z,26.08
2022-09-13T04:23:55.308Z,30.75
2022-09-13T04:29:00.671Z,27.80
2022-09-13T04:34:07.326Z,30.48
2022-09-13T04:39:15.632Z,30.42
2022-09-13T04:44:22.225Z,30.80
2022-09-13T04:49:27.748Z,26.45
2022-09-13T04:54:33.805Z,27.90
2022-09-13T04:59:39.203Z,30.23
2022-09-13T05:09:51.327Z,30.40
2022-09-13T05:14:57.031Z,26.33
2022-09-13T05:20:02.968Z,26.27
2022-09-13T05:25:10.642Z,28.17
2022-09-13T05:30:17.094Z,28.77
2022-09-13T05:35:22.766Z,27.17
2022-09-13T05:40:28.813Z,24.48
2022-09-13T05:45:34.359Z,26.92
2022-09-13T05:50:57.788Z,26.00
2022-09-13T05:56:04.725Z,24.38
2022-09-13T06:01:11.590Z,24.75
2022-09-13T06:06:17.158Z,24.88
2022-09-13T06:16:28.123Z,28.10
2022-09-13T06:21:34.232Z,24.50
2022-09-13T06:26:39.958Z,23.95
2022-09-13T06:31:46.844Z,23.75
2022-09-13T06:36:52.481Z,25.55
2022-09-13T06:41:58.078Z,22.80
2022-09-13T06:47:17.502Z,25.13
2022-09-13T06:52:23.362Z,25.45
2022-09-13T06:57:32.207Z,24.02
2022-09-13T07:02:37.649Z,25.50
2022-09-13T07:07:42.989Z,25.98
2022-09-13T07:12:49.544Z,22.42
2022-09-13T07:17:55.306Z,23.85
2022-09-13T07:23:00.872Z,22.63
2022-09-13T07:28:06.616Z,22.60
2022-09-13T07:33:12.187Z,22.83
2022-09-13T07:38:18.442Z,24.85
2022-09-13T07:43:24.141Z,23.33
2022-09-13T07:48:33.662Z,24.15
2022-09-13T07:53:40.569Z,25.58
2022-09-13T07:58:48.109Z,25.05
2022-09-13T08:04:04.887Z,23.13
2022-09-13T08:09:12.206Z,23.20
2022-09-13T08:14:20.286Z,23.15
2022-09-13T08:19:25.620Z,23.17
2022-09-13T08:24:31.271Z,25.30
2022-09-13T08:29:36.999Z,26.25
2022-09-13T08:34:42.359Z,27.23
2022-09-13T08:39:50.040Z,27.90
2022-09-13T08:44:59.319Z,27.17
2022-09-13T08:50:21.293Z,27.67
2022-09-13T08:56:00.269Z,28.02
2022-09-13T09:01:41.048Z,28.08
2022-09-13T09:06:47.228Z,27.85
2022-09-13T09:12:38.259Z,30.20
2022-09-13T09:17:58.483Z,32.03
2022-09-13T09:23:10.194Z,29.98
2022-09-13T09:28:18.361Z,30.17
2022-09-13T09:33:52.065Z,30.10
2022-09-13T09:38:58.699Z,30.63
2022-09-13T09:44:19.766Z,33.47
2022-09-13T09:49:55.559Z,42.55
2022-09-13T10:00:15.541Z,39.72
2022-09-13T10:05:23.037Z,34.55
2022-09-13T10:10:40.288Z,40.10
2022-09-13T10:16:33.384Z,45.17
2022-09-13T10:21:38.818Z,40.15
2022-09-13T10:26:45.321Z,45.47
2022-09-13T10:31:55.415Z,52.80
2022-09-13T10:37:24.291Z,49.92
2022-09-13T10:42:32.793Z,43.00
2022-09-13T10:47:46.357Z,47.40
2022-09-13T10:52:54.117Z,53.95
2022-09-13T10:58:05.544Z,50.20
2022-09-13T11:03:40.405Z,52.95
2022-09-13T11:08:49.429Z,45.65
2022-09-13T11:14:06.817Z,59.17
2022-09-13T11:19:45.441Z,62.15
2022-09-13T11:25:15.164Z,64.07
2022-09-13T11:30:27.779Z,65.47
2022-09-13T11:35:59.640Z,67.18
2022-09-13T11:41:29.882Z,56.35
2022-09-13T11:47:13.335Z,73.97
2022-09-13T11:52:54.042Z,76.97
2022-09-13T11:58:03.296Z,76.68
2022-09-13T12:03:14.446Z,80.18
2022-09-13T12:08:26.357Z,82.20
2022-09-13T12:13:59.922Z,76.75
2022-09-13T12:19:41.187Z,82.70
2022-09-13T12:24:53.818Z,81.80
2022-09-13T12:30:21.779Z,78.85
2022-09-13T12:35:33.716Z,80.90
2022-09-13T12:41:13.675Z,79.00
2022-09-13T12:46:34.005Z,77.63
2022-09-13T12:51:58.288Z,80.28
2022-09-13T12:57:03.880Z,78.35
2022-09-13T13:02:29.454Z,79.63
2022-09-13T13:07:39.856Z,80.60
2022-09-13T13:12:45.608Z,77.30
2022-09-13T13:17:53.771Z,84.78
2022-09-13T13:23:17.757Z,85.45
2022-09-13T13:28:45.770Z,94.50
2022-09-13T13:34:11.330Z,87.05
2022-09-13T13:39:28.598Z,82.47
2022-09-13T13:44:34.727Z,79.55
2022-09-13T13:49:40.585Z,82.32
2022-09-13T13:54:46.314Z,83.22
2022-09-13T13:59:54.451Z,77.25
2022-09-13T14:05:20.718Z,79.22
2022-09-13T14:10:27.845Z,77.35
2022-09-13T14:15:47.891Z,74.88
2022-09-13T14:21:05.382Z,92.13
2022-09-13T14:26:14.409Z,94.40
2022-09-13T14:31:22.161Z,95.85
2022-09-13T14:36:29.426Z,92.55
2022-09-13T14:41:39.413Z,90.47
2022-09-13T14:46:48.045Z,82.90
2022-09-13T14:52:07.443Z,80.45
2022-09-13T14:57:32.198Z,68.30
2022-09-13T15:02:42.423Z,61.33
2022-09-13T15:07:48.914Z,56.20
2022-09-13T15:12:56.147Z,49.67
2022-09-13T15:18:07.544Z,46.83
2022-09-13T15:23:26.829Z,38.45
2022-09-13T15:28:50.211Z,35.00
2022-09-13T15:34:22.040Z,27.17
2022-09-13T15:39:28.604Z,24.83
2022-09-13T15:44:34.214Z,25.77
2022-09-13T15:49:45.270Z,23.58
2022-09-13T15:54:53.216Z,22.42
2022-09-13T16:00:05.570Z,21.92
2022-09-13T16:05:15.380Z,21.65
2022-09-13T16:10:25.468Z,20.30
2022-09-13T16:15:31.287Z,23.48
2022-09-13T16:20:37.265Z,21.67
2022-09-13T16:25:43.304Z,22.92
2022-09-13T16:30:50.121Z,24.77
2022-09-13T16:35:58.045Z,25.58
2022-09-13T16:41:10.419Z,26.38
2022-09-13T16:46:16.983Z,27.98
2022-09-13T16:51:22.491Z,31.92
2022-09-13T16:56:29.041Z,33.70
2022-09-13T17:01:34.791Z,35.83
2022-09-13T17:06:40.715Z,48.80
2022-09-13T17:11:47.418Z,57.20
2022-09-13T17:16:56.065Z,52.55
2022-09-13T17:22:02.549Z,55.28
2022-09-13T17:27:09.755Z,60.08
2022-09-13T17:32:15.157Z,50.85
2022-09-13T17:37:20.685Z,50.20
2022-09-13T17:42:26.076Z,45.95
2022-09-13T17:52:37.644Z,52.50
2022-09-13T17:57:43.045Z,50.15
2022-09-13T18:07:54.269Z,48.60
2022-09-13T18:18:05.242Z,44.55
2022-09-13T18:23:11.256Z,46.00
2022-09-13T18:28:17.200Z,45.90
2022-09-13T18:33:24.316Z,47.83
2022-09-13T18:38:30.785Z,47.58
2022-09-13T18:43:38.446Z,49.13
2022-09-13T18:48:47.469Z,46.65
2022-09-13T18:53:53.990Z,44.42
2022-09-13T18:59:00.979Z,44.17
2022-09-13T19:04:10.131Z,42.95
2022-09-13T19:09:17.040Z,42.97
2022-09-13T19:14:25.270Z,41.03
2022-09-13T19:19:32.599Z,41.28
2022-09-13T19:24:39.607Z,42.15
2022-09-13T19:29:45.370Z,44.40
2022-09-13T19:34:51.934Z,44.35
2022-09-13T19:39:57.853Z,41.10
2022-09-13T19:45:03.210Z,39.50
2022-09-13T19:55:14.584Z,43.70
2022-09-13T20:00:21.405Z,41.20
2022-09-13T20:05:28.260Z,41.92
2022-09-13T20:10:41.862Z,43.88
2022-09-13T20:15:47.636Z,44.72
2022-09-13T20:20:58.163Z,46.83
2022-09-13T20:26:05.284Z,40.42
2022-09-13T20:31:11.370Z,47.25
2022-09-13T20:36:17.280Z,47.83
2022-09-13T20:41:23.657Z,44.95
2022-09-13T20:46:30.918Z,51.33
2022-09-13T20:51:36.432Z,54.30
2022-09-13T21:01:56.144Z,55.65
2022-09-13T21:07:25.121Z,50.70
2022-09-13T21:12:31.216Z,57.08
2022-09-13T21:17:36.854Z,59.42
2022-09-13T21:22:43.193Z,58.40
2022-09-13T21:27:48.905Z,58.30
2022-09-13T21:32:54.183Z,54.95
2022-09-13T21:37:59.795Z,59.33
2022-09-13T21:48:10.620Z,54.97
2022-09-13T21:53:16.403Z,57.30
2022-09-13T21:58:22.117Z,57.58
2022-09-13T22:03:27.820Z,58.92
2022-09-13T22:08:41.856Z,57.55
2022-09-13T22:13:49.196Z,59.30
2022-09-13T22:19:00.439Z,57.20
2022-09-13T22:24:07.740Z,54.33
2022-09-13T22:29:14.119Z,53.25
2022-09-13T22:34:22.936Z,52.05
2022-09-13T22:39:29.030Z,43.33
2022-09-13T22:44:35.266Z,54.17
2022-09-13T22:49:40.752Z,50.92
2022-09-13T22:54:47.887Z,57.55
2022-09-13T22:59:53.071Z,59.65
2022-09-13T23:10:04.375Z,53.78
2022-09-13T23:15:10.250Z,62.83
2022-09-13T23:20:16.060Z,55.33
2022-09-13T23:25:21.760Z,57.85
2022-09-13T23:30:28.093Z,54.38
2022-09-13T23:35:39.242Z,50.42
2022-09-13T23:40:44.712Z,64.65
2022-09-13T23:51:04.152Z,57.05
2022-09-13T23:56:10.495Z,68.93
